EZY1015 LFBO-EBBR
Flight info
| Callsign | EZY1015 |
|---|---|
| Flight time | N/A |
| Altitude | 34000 |
| Route | FISTO DCT PERIG DCT ADABI DCT BOKNO UN858 VANAD UN874 BAMES UT191 PODEM UN873 BAZOS DCT BELDI DCT VEKIN Z173 ARVOL |
| Aircraft | A320/M-SDE3FGHIRWY/LB1 |
Departure
| Time | 2026-05-06 06:47 |
|---|---|
| Airport | Toulouse-Blagnac Airport (LFBO) |
Arrival
| Time | N/A |
|---|---|
| Airport | Brussels Airport (EBBR) |
| Time | Latitude | Longitude | Altitude | Speed | Heading |
|---|---|---|---|---|---|
| 2026-05-06 06:19 | 43.62982 | 1.37276 | 495 ft | 0 kts | 81° |
| 2026-05-06 06:40 | 43.62986 | 1.37278 | 491 ft | 4 kts | 33° |
| 2026-05-06 06:40 | 43.63008 | 1.37271 | 487 ft | 4 kts | 340° |
| 2026-05-06 06:40 | 43.63009 | 1.37287 | 492 ft | 0 kts | 269° |
| 2026-05-06 06:41 | 43.62982 | 1.37276 | 495 ft | 0 kts | 81° |
| 2026-05-06 06:43 | 43.62979 | 1.37284 | 494 ft | 4 kts | 112° |
| 2026-05-06 06:43 | 43.62928 | 1.37313 | 492 ft | 13 kts | 159° |
| 2026-05-06 06:44 | 43.62817 | 1.37368 | 489 ft | 19 kts | 160° |
| 2026-05-06 06:44 | 43.62705 | 1.37458 | 494 ft | 17 kts | 143° |
| 2026-05-06 06:44 | 43.62620 | 1.37444 | 492 ft | 14 kts | 228° |
| 2026-05-06 06:44 | 43.62555 | 1.37326 | 498 ft | 17 kts | 233° |
| 2026-05-06 06:45 | 43.62489 | 1.37183 | 494 ft | 19 kts | 255° |
| 2026-05-06 06:45 | 43.62472 | 1.36996 | 486 ft | 20 kts | 262° |
| 2026-05-06 06:45 | 43.62452 | 1.36797 | 494 ft | 22 kts | 262° |
| 2026-05-06 06:45 | 43.62453 | 1.36637 | 494 ft | 13 kts | 302° |
| 2026-05-06 06:46 | 43.62534 | 1.36549 | 495 ft | 28 kts | 323° |
| 2026-05-06 06:46 | 43.62907 | 1.36160 | 490 ft | 102 kts | 323° |
| 2026-05-06 06:46 | 43.63631 | 1.35403 | 496 ft | 156 kts | 322° |
| 2026-05-06 06:46 | 43.64517 | 1.34454 | 1020 ft | 161 kts | 322° |
| 2026-05-06 06:47 | 43.65410 | 1.33520 | 1725 ft | 162 kts | 322° |
| 2026-05-06 06:47 | 43.66347 | 1.32546 | 2142 ft | 178 kts | 322° |
| 2026-05-06 06:47 | 43.67403 | 1.31453 | 2450 ft | 201 kts | 322° |
| 2026-05-06 06:47 | 43.68570 | 1.30241 | 2741 ft | 225 kts | 322° |
| 2026-05-06 06:48 | 43.69890 | 1.28867 | 3170 ft | 249 kts | 321° |
| 2026-05-06 06:48 | 43.71313 | 1.27400 | 3901 ft | 259 kts | 325° |
| 2026-05-06 06:48 | 43.72991 | 1.26418 | 4778 ft | 266 kts | 345° |
| 2026-05-06 06:48 | 43.74798 | 1.25819 | 5679 ft | 269 kts | 345° |
| 2026-05-06 06:49 | 43.76636 | 1.25227 | 6571 ft | 273 kts | 347° |
| 2026-05-06 06:49 | 43.78547 | 1.25012 | 7417 ft | 279 kts | 358° |
| 2026-05-06 06:49 | 43.80503 | 1.24958 | 8279 ft | 283 kts | 357° |
| 2026-05-06 06:49 | 43.82485 | 1.24899 | 9121 ft | 287 kts | 357° |
| 2026-05-06 06:50 | 43.84491 | 1.24835 | 9933 ft | 290 kts | 357° |
| 2026-05-06 06:50 | 43.86554 | 1.24765 | 10418 ft | 307 kts | 357° |
| 2026-05-06 06:50 | 43.88774 | 1.24686 | 10663 ft | 331 kts | 357° |
| 2026-05-06 06:50 | 43.91141 | 1.24603 | 11083 ft | 346 kts | 357° |
| 2026-05-06 06:51 | 43.93568 | 1.24522 | 11764 ft | 351 kts | 357° |
| 2026-05-06 06:51 | 43.96024 | 1.24440 | 12483 ft | 355 kts | 357° |
| 2026-05-06 06:51 | 43.98507 | 1.24354 | 13183 ft | 358 kts | 357° |
| 2026-05-06 06:51 | 44.01015 | 1.24267 | 13862 ft | 362 kts | 357° |
| 2026-05-06 06:52 | 44.03546 | 1.24178 | 14525 ft | 366 kts | 357° |
| 2026-05-06 06:52 | 44.06101 | 1.24090 | 15172 ft | 369 kts | 358° |
| 2026-05-06 06:52 | 44.08683 | 1.24003 | 15807 ft | 373 kts | 358° |
| 2026-05-06 06:52 | 44.11288 | 1.23920 | 16415 ft | 376 kts | 358° |
| 2026-05-06 06:53 | 44.13911 | 1.23832 | 17008 ft | 379 kts | 358° |
| 2026-05-06 06:53 | 44.16558 | 1.23741 | 17589 ft | 382 kts | 358° |
| 2026-05-06 06:53 | 44.19232 | 1.23648 | 18156 ft | 385 kts | 358° |
| 2026-05-06 06:53 | 44.21885 | 1.23558 | 18691 ft | 388 kts | 358° |
| 2026-05-06 06:54 | 44.24633 | 1.23464 | 19221 ft | 392 kts | 358° |
| 2026-05-06 06:54 | 44.27334 | 1.23370 | 19719 ft | 395 kts | 358° |
| 2026-05-06 06:54 | 44.30129 | 1.23273 | 20222 ft | 398 kts | 358° |
| 2026-05-06 06:54 | 44.32878 | 1.23179 | 20707 ft | 402 kts | 358° |
| 2026-05-06 06:55 | 44.35683 | 1.23083 | 21187 ft | 404 kts | 358° |
| 2026-05-06 06:55 | 44.38505 | 1.22987 | 21645 ft | 408 kts | 358° |
| 2026-05-06 06:55 | 44.41350 | 1.22888 | 22092 ft | 410 kts | 358° |
| 2026-05-06 06:55 | 44.44219 | 1.22784 | 22523 ft | 414 kts | 356° |
| 2026-05-06 06:56 | 44.47082 | 1.22302 | 22942 ft | 416 kts | 347° |
| 2026-05-06 06:56 | 44.49887 | 1.21275 | 23357 ft | 418 kts | 343° |
| 2026-05-06 06:56 | 44.52699 | 1.20176 | 23768 ft | 421 kts | 343° |
| 2026-05-06 06:56 | 44.55529 | 1.19071 | 24165 ft | 424 kts | 343° |
| 2026-05-06 06:57 | 44.58381 | 1.17959 | 24548 ft | 427 kts | 343° |
| 2026-05-06 06:57 | 44.61248 | 1.16844 | 24919 ft | 429 kts | 343° |
| 2026-05-06 06:57 | 44.64134 | 1.15719 | 25274 ft | 432 kts | 343° |
| 2026-05-06 06:57 | 44.67033 | 1.14585 | 25624 ft | 434 kts | 343° |
| 2026-05-06 06:58 | 44.69955 | 1.13440 | 25972 ft | 437 kts | 343° |
| 2026-05-06 06:58 | 44.72888 | 1.12288 | 26320 ft | 439 kts | 343° |
| 2026-05-06 06:58 | 44.75843 | 1.11123 | 26665 ft | 442 kts | 343° |
| 2026-05-06 06:58 | 44.78814 | 1.09955 | 27002 ft | 445 kts | 343° |
| 2026-05-06 06:59 | 44.81798 | 1.08783 | 27338 ft | 447 kts | 343° |
| 2026-05-06 06:59 | 44.84805 | 1.07602 | 27650 ft | 449 kts | 343° |
| 2026-05-06 06:59 | 44.86801 | 1.06819 | 27856 ft | 451 kts | 343° |
| 2026-05-06 06:59 | 44.89830 | 1.05629 | 28161 ft | 453 kts | 343° |
| 2026-05-06 07:00 | 44.92874 | 1.04428 | 28458 ft | 455 kts | 343° |
| 2026-05-06 07:00 | 44.95932 | 1.03215 | 28742 ft | 457 kts | 343° |
| 2026-05-06 07:00 | 44.99001 | 1.01998 | 29014 ft | 459 kts | 343° |
| 2026-05-06 07:00 | 45.03093 | 1.00375 | 29377 ft | 462 kts | 343° |
| 2026-05-06 07:01 | 45.05190 | 0.99544 | 29550 ft | 463 kts | 343° |
| 2026-05-06 07:01 | 45.08299 | 0.98309 | 29802 ft | 465 kts | 343° |
| 2026-05-06 07:01 | 45.11420 | 0.97070 | 30075 ft | 466 kts | 344° |
| 2026-05-06 07:01 | 45.14559 | 0.95926 | 30437 ft | 465 kts | 346° |
| 2026-05-06 07:02 | 45.17720 | 0.94931 | 30791 ft | 465 kts | 347° |
| 2026-05-06 07:02 | 45.20887 | 0.94036 | 31139 ft | 464 kts | 348° |
| 2026-05-06 07:02 | 45.24062 | 0.93181 | 31476 ft | 464 kts | 348° |
| 2026-05-06 07:02 | 45.27187 | 0.92333 | 31804 ft | 463 kts | 348° |
| 2026-05-06 07:03 | 45.30351 | 0.91447 | 32129 ft | 463 kts | 348° |
| 2026-05-06 07:03 | 45.33502 | 0.90532 | 32443 ft | 462 kts | 347° |
| 2026-05-06 07:03 | 45.36650 | 0.89590 | 32759 ft | 462 kts | 347° |
| 2026-05-06 07:03 | 45.39791 | 0.88634 | 33080 ft | 461 kts | 347° |
| 2026-05-06 07:04 | 45.42928 | 0.87675 | 33391 ft | 461 kts | 347° |
| 2026-05-06 07:04 | 45.46066 | 0.86723 | 33698 ft | 460 kts | 347° |
| 2026-05-06 07:04 | 45.49202 | 0.85775 | 33880 ft | 460 kts | 347° |
| 2026-05-06 07:05 | 45.55463 | 0.83898 | 33905 ft | 459 kts | 347° |
| 2026-05-06 07:05 | 45.61721 | 0.82024 | 33905 ft | 459 kts | 347° |
| 2026-05-06 07:06 | 45.67965 | 0.80135 | 33898 ft | 458 kts | 347° |
| 2026-05-06 07:06 | 45.74204 | 0.78240 | 33894 ft | 458 kts | 347° |
| 2026-05-06 07:07 | 45.80399 | 0.76367 | 33894 ft | 458 kts | 347° |
| 2026-05-06 07:07 | 45.86632 | 0.74480 | 33895 ft | 458 kts | 347° |
| 2026-05-06 07:08 | 45.92866 | 0.72587 | 33890 ft | 458 kts | 347° |
| 2026-05-06 07:08 | 45.99100 | 0.70692 | 33892 ft | 458 kts | 347° |
| 2026-05-06 07:09 | 46.05329 | 0.68787 | 33895 ft | 458 kts | 347° |
| 2026-05-06 07:09 | 46.11556 | 0.66867 | 33893 ft | 457 kts | 347° |
| 2026-05-06 07:10 | 46.17777 | 0.64962 | 33888 ft | 456 kts | 347° |
| 2026-05-06 07:10 | 46.23986 | 0.63056 | 33885 ft | 456 kts | 347° |
| 2026-05-06 07:11 | 46.30181 | 0.61137 | 33873 ft | 455 kts | 347° |
| 2026-05-06 07:11 | 46.36372 | 0.59215 | 33868 ft | 455 kts | 347° |
| 2026-05-06 07:12 | 46.42563 | 0.57294 | 33861 ft | 455 kts | 347° |
| 2026-05-06 07:12 | 46.48710 | 0.55389 | 33856 ft | 455 kts | 347° |
| 2026-05-06 07:13 | 46.54939 | 0.53828 | 33854 ft | 455 kts | 357° |
| 2026-05-06 07:13 | 46.61220 | 0.54741 | 33853 ft | 455 kts | 13° |
| 2026-05-06 07:14 | 46.67395 | 0.56788 | 33856 ft | 455 kts | 13° |
| 2026-05-06 07:14 | 46.73576 | 0.58837 | 33869 ft | 456 kts | 13° |
| 2026-05-06 07:15 | 46.79762 | 0.60881 | 33875 ft | 456 kts | 13° |
| 2026-05-06 07:15 | 46.85952 | 0.62927 | 33881 ft | 456 kts | 13° |
| 2026-05-06 07:16 | 46.92142 | 0.64973 | 33887 ft | 456 kts | 13° |
| 2026-05-06 07:16 | 46.98332 | 0.67034 | 33888 ft | 456 kts | 13° |
| 2026-05-06 07:17 | 47.04522 | 0.69037 | 33887 ft | 455 kts | 8° |
| 2026-05-06 07:17 | 47.10831 | 0.69811 | 33886 ft | 455 kts | 4° |
| 2026-05-06 07:18 | 47.17151 | 0.70459 | 33885 ft | 455 kts | 4° |
| 2026-05-06 07:18 | 47.23477 | 0.71111 | 33890 ft | 456 kts | 4° |
| 2026-05-06 07:19 | 47.29803 | 0.71769 | 33896 ft | 455 kts | 4° |
| 2026-05-06 07:19 | 47.36081 | 0.72445 | 33895 ft | 455 kts | 4° |
| 2026-05-06 07:20 | 47.42396 | 0.73105 | 33900 ft | 455 kts | 4° |
| 2026-05-06 07:20 | 47.48702 | 0.73874 | 33897 ft | 454 kts | 9° |
| 2026-05-06 07:21 | 47.54765 | 0.76404 | 33888 ft | 453 kts | 19° |
| 2026-05-06 07:21 | 47.60744 | 0.79357 | 33886 ft | 453 kts | 19° |
| 2026-05-06 07:22 | 47.66726 | 0.82302 | 33884 ft | 453 kts | 19° |
| 2026-05-06 07:22 | 47.72710 | 0.85251 | 33885 ft | 453 kts | 19° |
| 2026-05-06 07:23 | 47.78690 | 0.88208 | 33885 ft | 453 kts | 19° |
| 2026-05-06 07:23 | 47.84670 | 0.91178 | 33883 ft | 453 kts | 19° |
| 2026-05-06 07:24 | 47.90649 | 0.94192 | 33881 ft | 453 kts | 19° |
| 2026-05-06 07:24 | 47.96616 | 0.97220 | 33875 ft | 453 kts | 19° |
| 2026-05-06 07:25 | 48.02583 | 1.00259 | 33872 ft | 453 kts | 19° |
| 2026-05-06 07:25 | 48.08547 | 1.03289 | 33879 ft | 452 kts | 19° |
| 2026-05-06 07:26 | 48.14461 | 1.06306 | 33879 ft | 452 kts | 19° |
| 2026-05-06 07:26 | 48.20405 | 1.09337 | 33877 ft | 451 kts | 19° |
| 2026-05-06 07:27 | 48.26351 | 1.12369 | 33875 ft | 451 kts | 19° |
| 2026-05-06 07:27 | 48.32300 | 1.15398 | 33874 ft | 452 kts | 19° |
| 2026-05-06 07:28 | 48.38253 | 1.18435 | 33876 ft | 452 kts | 19° |
| 2026-05-06 07:28 | 48.47175 | 1.23021 | 33883 ft | 452 kts | 19° |
| 2026-05-06 07:29 | 48.53124 | 1.26084 | 33886 ft | 452 kts | 19° |
| 2026-05-06 07:29 | 48.59082 | 1.29138 | 33892 ft | 452 kts | 19° |
| 2026-05-06 07:30 | 48.65057 | 1.32130 | 33896 ft | 452 kts | 19° |
| 2026-05-06 07:30 | 48.71032 | 1.35120 | 33900 ft | 452 kts | 19° |
| 2026-05-06 07:31 | 48.77002 | 1.38141 | 33905 ft | 452 kts | 19° |
| 2026-05-06 07:31 | 48.82930 | 1.41154 | 33904 ft | 452 kts | 19° |
| 2026-05-06 07:32 | 48.88928 | 1.44209 | 33907 ft | 452 kts | 19° |
| 2026-05-06 07:32 | 48.94853 | 1.47240 | 33911 ft | 452 kts | 19° |
| 2026-05-06 07:33 | 49.00967 | 1.49419 | 33912 ft | 452 kts | 9° |
| 2026-05-06 07:33 | 49.07191 | 1.50848 | 33914 ft | 452 kts | 9° |
| 2026-05-06 07:34 | 49.13414 | 1.52303 | 33915 ft | 452 kts | 9° |
| 2026-05-06 07:34 | 49.19635 | 1.53779 | 33916 ft | 452 kts | 9° |
| 2026-05-06 07:35 | 49.25623 | 1.56513 | 33913 ft | 450 kts | 27° |
| 2026-05-06 07:35 | 49.30722 | 1.61968 | 33910 ft | 448 kts | 44° |
| 2026-05-06 07:36 | 49.35224 | 1.68561 | 33909 ft | 448 kts | 44° |
| 2026-05-06 07:36 | 49.39731 | 1.75157 | 33903 ft | 448 kts | 44° |
| 2026-05-06 07:37 | 49.44240 | 1.81757 | 33900 ft | 448 kts | 44° |
| 2026-05-06 07:37 | 49.48745 | 1.88384 | 33901 ft | 448 kts | 45° |
| 2026-05-06 07:38 | 49.53210 | 1.94987 | 33902 ft | 448 kts | 45° |
| 2026-05-06 07:38 | 49.57700 | 2.01636 | 33903 ft | 448 kts | 45° |
| 2026-05-06 07:39 | 49.62194 | 2.08300 | 33907 ft | 448 kts | 45° |
| 2026-05-06 07:39 | 49.66685 | 2.14980 | 33903 ft | 448 kts | 45° |
| 2026-05-06 07:40 | 49.71161 | 2.21676 | 33902 ft | 448 kts | 45° |
| 2026-05-06 07:40 | 49.75632 | 2.28378 | 33903 ft | 448 kts | 45° |
| 2026-05-06 07:41 | 49.80104 | 2.35089 | 33903 ft | 448 kts | 45° |
| 2026-05-06 07:41 | 49.84567 | 2.41806 | 33904 ft | 447 kts | 45° |
| 2026-05-06 07:42 | 49.88992 | 2.48500 | 33903 ft | 447 kts | 45° |
| 2026-05-06 07:42 | 49.93447 | 2.55238 | 33898 ft | 448 kts | 45° |
| 2026-05-06 07:43 | 49.97899 | 2.61983 | 33896 ft | 447 kts | 45° |
| 2026-05-06 07:43 | 50.02337 | 2.68744 | 33888 ft | 447 kts | 45° |
| 2026-05-06 07:44 | 50.06776 | 2.75527 | 33885 ft | 447 kts | 45° |
| 2026-05-06 07:44 | 50.11211 | 2.82317 | 33887 ft | 447 kts | 45° |
| 2026-05-06 07:45 | 50.15644 | 2.89119 | 33888 ft | 448 kts | 45° |
| 2026-05-06 07:45 | 50.20083 | 2.95947 | 33878 ft | 449 kts | 45° |
| 2026-05-06 07:46 | 50.24523 | 3.02804 | 33882 ft | 449 kts | 45° |
| 2026-05-06 07:46 | 50.28972 | 3.09679 | 33883 ft | 450 kts | 46° |
| 2026-05-06 07:47 | 50.33383 | 3.16526 | 33878 ft | 449 kts | 46° |
| 2026-05-06 07:47 | 50.37817 | 3.23429 | 33874 ft | 450 kts | 46° |
| 2026-05-06 07:48 | 50.42248 | 3.30346 | 33873 ft | 450 kts | 46° |
| 2026-05-06 07:48 | 50.46677 | 3.37272 | 33873 ft | 449 kts | 46° |
| 2026-05-06 07:49 | 50.51105 | 3.44218 | 33873 ft | 450 kts | 46° |
| 2026-05-06 07:49 | 50.55689 | 3.50912 | 33875 ft | 451 kts | 36° |
| 2026-05-06 07:50 | 50.59972 | 3.55615 | 33876 ft | 452 kts | 36° |
| 2026-05-06 07:50 | 50.65133 | 3.61267 | 33880 ft | 452 kts | 36° |
| 2026-05-06 07:51 | 50.70291 | 3.66937 | 33872 ft | 452 kts | 36° |
| 2026-05-06 07:51 | 50.75446 | 3.72630 | 33871 ft | 452 kts | 36° |
| 2026-05-06 07:52 | 50.80591 | 3.78359 | 33866 ft | 452 kts | 36° |
| 2026-05-06 07:52 | 50.85718 | 3.84117 | 33866 ft | 452 kts | 38° |
| 2026-05-06 07:53 | 50.87982 | 3.87449 | 33862 ft | 450 kts | 52° |
| 2026-05-06 07:53 | 50.89754 | 3.91590 | 33861 ft | 448 kts | 59° |
| 2026-05-06 07:53 | 50.92043 | 4.00549 | 33853 ft | 443 kts | 86° |
| 2026-05-06 07:54 | 50.91897 | 4.05390 | 33850 ft | 440 kts | 102° |
| 2026-05-06 07:54 | 50.90915 | 4.09936 | 33845 ft | 436 kts | 121° |
| 2026-05-06 07:54 | 50.89010 | 4.13619 | 33842 ft | 433 kts | 142° |
| 2026-05-06 07:54 | 50.86404 | 4.15966 | 33837 ft | 432 kts | 158° |
| 2026-05-06 07:55 | 50.80622 | 4.18633 | 33828 ft | 435 kts | 168° |
| 2026-05-06 07:55 | 50.74665 | 4.20441 | 33832 ft | 437 kts | 168° |
| 2026-05-06 07:56 | 50.69059 | 4.23823 | 33833 ft | 436 kts | 139° |
| 2026-05-06 07:56 | 50.67155 | 4.27502 | 33833 ft | 436 kts | 117° |
| 2026-05-06 07:56 | 50.66247 | 4.32040 | 33822 ft | 436 kts | 96° |
| 2026-05-06 07:57 | 50.66466 | 4.36786 | 33817 ft | 438 kts | 75° |
| 2026-05-06 07:57 | 50.67785 | 4.41097 | 33813 ft | 441 kts | 53° |
| 2026-05-06 07:57 | 50.70028 | 4.44362 | 33841 ft | 440 kts | 31° |
| 2026-05-06 07:57 | 50.72818 | 4.46080 | 33851 ft | 425 kts | 10° |
| 2026-05-06 07:58 | 50.75708 | 4.46503 | 33856 ft | 410 kts | 3° |
| 2026-05-06 07:58 | 50.78505 | 4.46704 | 33856 ft | 395 kts | 3° |
| 2026-05-06 07:58 | 50.83885 | 4.47158 | 33858 ft | 383 kts | 8° |
| 2026-05-06 07:59 | 50.89096 | 4.48842 | 33869 ft | 382 kts | 16° |
| 2026-05-06 07:59 | 50.91710 | 4.49547 | 33870 ft | 382 kts | 357° |
| 2026-05-06 07:59 | 50.94330 | 4.48882 | 33868 ft | 383 kts | 348° |
| 2026-05-06 08:00 | 50.96970 | 4.48607 | 33863 ft | 380 kts | 11° |
| 2026-05-06 08:00 | 50.99423 | 4.50038 | 33869 ft | 377 kts | 36° |
| 2026-05-06 08:00 | 51.01246 | 4.52948 | 33868 ft | 372 kts | 62° |
| 2026-05-06 08:00 | 51.02098 | 4.56764 | 33867 ft | 368 kts | 88° |
| 2026-05-06 08:01 | 51.01841 | 4.60694 | 33874 ft | 363 kts | 112° |
| 2026-05-06 08:01 | 51.00531 | 4.64057 | 33868 ft | 360 kts | 138° |
| 2026-05-06 08:01 | 50.98429 | 4.66147 | 33867 ft | 359 kts | 163° |
| 2026-05-06 08:01 | 50.95965 | 4.66542 | 33868 ft | 360 kts | 189° |
| 2026-05-06 08:02 | 50.93628 | 4.65158 | 33867 ft | 363 kts | 215° |
| 2026-05-06 08:02 | 50.91893 | 4.62257 | 33867 ft | 367 kts | 240° |
| 2026-05-06 08:02 | 50.91080 | 4.58422 | 33872 ft | 372 kts | 261° |
| 2026-05-06 08:02 | 50.90956 | 4.54310 | 33870 ft | 376 kts | 271° |
| 2026-05-06 08:03 | 50.91004 | 4.46070 | 33869 ft | 374 kts | 256° |
| 2026-05-06 08:03 | 50.90582 | 4.42001 | 33859 ft | 376 kts | 270° |
| 2026-05-06 08:03 | 50.91116 | 4.37977 | 33873 ft | 378 kts | 296° |
| 2026-05-06 08:04 | 50.92675 | 4.34648 | 33870 ft | 380 kts | 319° |
| 2026-05-06 08:04 | 50.94697 | 4.32012 | 33871 ft | 383 kts | 321° |
| 2026-05-06 08:04 | 50.98845 | 4.26708 | 33869 ft | 383 kts | 321° |
| 2026-05-06 08:05 | 51.02558 | 4.20695 | 33869 ft | 382 kts | 307° |
| 2026-05-06 08:05 | 51.05676 | 4.13858 | 33869 ft | 382 kts | 303° |
| 2026-05-06 08:06 | 51.08704 | 4.06921 | 33870 ft | 382 kts | 304° |
| 2026-05-06 08:06 | 51.11809 | 4.00067 | 33869 ft | 382 kts | 305° |
| 2026-05-06 08:07 | 51.14956 | 3.93272 | 33869 ft | 381 kts | 305° |
| 2026-05-06 08:07 | 51.18100 | 3.86483 | 33869 ft | 380 kts | 305° |
| 2026-05-06 08:08 | 51.21228 | 3.79677 | 33869 ft | 380 kts | 305° |
| 2026-05-06 08:08 | 51.24353 | 3.72857 | 33876 ft | 381 kts | 305° |
| 2026-05-06 08:09 | 51.27454 | 3.66077 | 33877 ft | 380 kts | 305° |
| 2026-05-06 08:09 | 51.30566 | 3.59246 | 33898 ft | 380 kts | 305° |
| 2026-05-06 08:10 | 51.33676 | 3.52405 | 33902 ft | 380 kts | 304° |
| 2026-05-06 08:10 | 51.36777 | 3.45554 | 33905 ft | 380 kts | 304° |
| 2026-05-06 08:11 | 51.39874 | 3.38701 | 33905 ft | 380 kts | 304° |
| 2026-05-06 08:11 | 51.42971 | 3.31837 | 33906 ft | 380 kts | 304° |
| 2026-05-06 08:12 | 51.46055 | 3.24975 | 33909 ft | 378 kts | 304° |
| 2026-05-06 08:12 | 51.49120 | 3.18126 | 33916 ft | 378 kts | 304° |
| 2026-05-06 08:13 | 51.52185 | 3.11271 | 33915 ft | 378 kts | 304° |